Time;durP1;ratioP1;P1;durP2;ratioP2;P2;SDS_P1;SDS_P2;PMS_P1;PMS_P2;Temp;Humidity;BMP_temperature;BMP_pressure;BME280_temperature;BME280_humidity;BME280_pressure;Samples;Min_cycle;Max_cycle;Signal;HPM_P1;HPM_P2
2022/09/21 00:00:29;;;;;;;4.95;3.53;;;;;;;;;;4901319;29;20024;-77
2022/09/21 00:03:49;;;;;;;4.50;3.60;;;;;;;;;;4918002;29;20083;-77
2022/09/21 00:06:21;;;;;;;5.65;3.78;;;;;;;;;;4919261;29;20037;-77
2022/09/21 00:09:10;;;;;;;4.10;3.35;;;;;;;;;;4919443;29;20037;-77
2022/09/21 00:12:04;;;;;;;5.25;3.70;;;;;;;;;;4883055;29;20017;-77
2022/09/21 00:14:33;;;;;;;5.78;3.42;;;;;;;;;;4860065;29;20072;-77
2022/09/21 00:17:27;;;;;;;5.10;3.50;;;;;;;;;;4862970;29;20071;-77
2022/09/21 00:20:42;;;;;;;5.03;3.50;;;;;;;;;;4839658;29;20037;-77
2022/09/21 00:23:09;;;;;;;5.82;3.30;;;;;;;;;;4894983;29;20029;-76
2022/09/21 00:25:56;;;;;;;4.40;3.30;;;;;;;;;;4904296;29;20039;-76
2022/09/21 00:29:02;;;;;;;4.43;3.45;;;;;;;;;;4847840;29;20034;-76
2022/09/21 00:31:49;;;;;;;6.20;3.60;;;;;;;;;;4837141;29;20096;-77
2022/09/21 00:34:40;;;;;;;4.93;3.40;;;;;;;;;;4843333;29;20127;-77
2022/09/21 00:37:08;;;;;;;4.97;3.45;;;;;;;;;;4853807;29;20041;-77
2022/09/21 00:40:24;;;;;;;4.68;3.40;;;;;;;;;;4889439;29;20035;-77
2022/09/21 00:42:50;;;;;;;5.35;3.22;;;;;;;;;;4975169;28;20027;-77
2022/09/21 00:45:31;;;;;;;3.80;3.10;;;;;;;;;;4976530;28;20027;-77
2022/09/21 00:47:57;;;;;;;4.22;3.10;;;;;;;;;;4961819;29;20027;-77
2022/09/21 00:50:49;;;;;;;4.93;3.17;;;;;;;;;;4977966;29;20027;-77
2022/09/21 00:53:44;;;;;;;3.92;2.95;;;;;;;;;;4957235;28;20035;-77
2022/09/21 00:56:36;;;;;;;4.85;3.08;;;;;;;;;;4938591;29;20044;-77
2022/09/21 00:59:30;;;;;;;6.20;3.00;;;;;;;;;;4938744;29;20055;-77
2022/09/21 01:02:27;;;;;;;6.67;3.20;;;;;;;;;;4934123;29;20060;-77
2022/09/21 01:05:34;;;;;;;4.28;3.00;;;;;;;;;;4935936;29;20047;-77
2022/09/21 01:08:25;;;;;;;4.75;3.03;;;;;;;;;;4932425;28;20068;-77
2022/09/21 01:11:19;;;;;;;5.78;2.85;;;;;;;;;;4940233;29;20033;-77
2022/09/21 01:14:11;;;;;;;4.25;2.80;;;;;;;;;;4924141;28;20028;-77
2022/09/21 01:17:20;;;;;;;5.13;3.05;;;;;;;;;;4843582;29;20550;-77
2022/09/21 01:19:58;;;;;;;5.32;3.30;;;;;;;;;;4791513;29;20095;-77
2022/09/21 01:22:45;;;;;;;4.70;3.47;;;;;;;;;;4828088;29;20066;-77
2022/09/21 01:25:23;;;;;;;3.97;3.10;;;;;;;;;;4820815;29;20096;-77
2022/09/21 01:28:19;;;;;;;5.10;3.13;;;;;;;;;;4816749;29;20078;-77
2022/09/21 01:30:58;;;;;;;4.18;3.38;;;;;;;;;;4808353;29;20038;-76
2022/09/21 01:33:42;;;;;;;4.25;3.00;;;;;;;;;;4766326;30;20102;-77
2022/09/21 01:36:25;;;;;;;4.32;3.15;;;;;;;;;;4779795;30;20039;-77
2022/09/21 01:39:14;;;;;;;4.07;3.20;;;;;;;;;;4783231;29;20560;-77
2022/09/21 01:41:50;;;;;;;6.10;3.10;;;;;;;;;;4801965;29;20043;-76
2022/09/21 01:44:19;;;;;;;7.72;3.17;;;;;;;;;;4802121;30;20047;-77
2022/09/21 01:46:47;;;;;;;4.55;3.08;;;;;;;;;;4799738;29;20450;-77
2022/09/21 01:49:20;;;;;;;5.32;3.45;;;;;;;;;;4805599;29;20054;-77
2022/09/21 01:51:49;;;;;;;5.55;3.65;;;;;;;;;;4800547;29;20047;-77
2022/09/21 01:54:44;;;;;;;3.65;3.00;;;;;;;;;;4873404;29;20018;-77
2022/09/21 01:57:28;;;;;;;3.53;2.97;;;;;;;;;;4860311;29;20033;-77
2022/09/21 02:00:26;;;;;;;5.03;3.25;;;;;;;;;;4863470;29;20067;-76
2022/09/21 02:03:05;;;;;;;4.38;3.55;;;;;;;;;;4879075;29;20400;-78
2022/09/21 02:05:33;;;;;;;5.90;3.55;;;;;;;;;;4865950;29;20089;-77
2022/09/21 02:08:13;;;;;;;6.85;3.67;;;;;;;;;;4966590;28;20049;-77
2022/09/21 02:10:46;;;;;;;5.35;3.38;;;;;;;;;;4981577;28;20019;-77
2022/09/21 02:13:19;;;;;;;4.60;3.72;;;;;;;;;;4962430;28;20064;-77
2022/09/21 02:15:48;;;;;;;4.97;3.38;;;;;;;;;;4979181;28;20031;-77
2022/09/21 02:18:41;;;;;;;5.38;3.10;;;;;;;;;;4967703;28;20022;-77
2022/09/21 02:21:13;;;;;;;4.72;3.47;;;;;;;;;;4973695;28;20110;-77
2022/09/21 02:23:45;;;;;;;4.65;3.30;;;;;;;;;;4968950;28;20099;-77
2022/09/21 02:26:31;;;;;;;4.97;3.40;;;;;;;;;;4956546;28;20047;-77
2022/09/21 02:29:17;;;;;;;4.60;3.20;;;;;;;;;;4968374;28;20507;-78
2022/09/21 02:32:15;;;;;;;5.43;3.47;;;;;;;;;;4969022;28;20038;-77
2022/09/21 02:34:42;;;;;;;4.90;3.30;;;;;;;;;;4971740;28;20047;-77
2022/09/21 02:37:32;;;;;;;4.80;3.40;;;;;;;;;;4973410;28;20011;-77
2022/09/21 02:40:11;;;;;;;4.75;3.30;;;;;;;;;;4895747;29;20033;-77
2022/09/21 02:42:42;;;;;;;5.55;3.40;;;;;;;;;;4882641;29;20136;-77
2022/09/21 02:45:14;;;;;;;4.47;3.20;;;;;;;;;;4895638;29;20053;-78
2022/09/21 02:47:51;;;;;;;4.22;3.25;;;;;;;;;;4894208;29;20033;-77
2022/09/21 02:50:21;;;;;;;4.68;3.50;;;;;;;;;;4900999;29;20041;-77
2022/09/21 02:53:04;;;;;;;5.82;3.78;;;;;;;;;;4898770;29;20111;-77
2022/09/21 02:55:48;;;;;;;3.92;3.40;;;;;;;;;;4904057;29;20068;-77
2022/09/21 02:58:25;;;;;;;4.20;3.40;;;;;;;;;;4902230;29;20025;-78
2022/09/21 03:00:52;;;;;;;3.78;3.22;;;;;;;;;;4881989;29;20029;-78
2022/09/21 03:03:23;;;;;;;4.20;3.22;;;;;;;;;;4894922;29;20097;-77
2022/09/21 03:05:51;;;;;;;5.45;3.38;;;;;;;;;;4889348;29;20035;-78
2022/09/21 03:08:19;;;;;;;5.60;3.47;;;;;;;;;;4894517;29;20529;-78
2022/09/21 03:11:25;;;;;;;5.07;3.60;;;;;;;;;;4893659;29;20442;-78
2022/09/21 03:13:53;;;;;;;6.22;3.30;;;;;;;;;;4893949;29;20041;-78
2022/09/21 03:16:25;;;;;;;3.55;2.90;;;;;;;;;;4924313;29;20047;-77
2022/09/21 03:18:51;;;;;;;5.07;3.35;;;;;;;;;;4979272;28;20074;-78
2022/09/21 03:21:17;;;;;;;4.82;3.38;;;;;;;;;;4962361;28;20062;-77
2022/09/21 03:23:48;;;;;;;4.82;3.42;;;;;;;;;;4975142;28;20022;-78
2022/09/21 03:26:14;;;;;;;3.75;3.20;;;;;;;;;;4959764;28;20039;-77
2022/09/21 03:28:40;;;;;;;4.18;3.22;;;;;;;;;;4964106;28;20035;-77
2022/09/21 03:31:09;;;;;;;4.30;3.15;;;;;;;;;;4975572;28;20054;-77
2022/09/21 03:33:38;;;;;;;3.65;3.15;;;;;;;;;;4956408;28;20039;-77
2022/09/21 03:36:08;;;;;;;6.68;3.58;;;;;;;;;;4972590;28;20043;-78
2022/09/21 03:38:38;;;;;;;4.70;3.38;;;;;;;;;;4958906;28;20043;-77
2022/09/21 03:41:06;;;;;;;4.97;3.58;;;;;;;;;;4968935;28;20047;-78
2022/09/21 03:43:41;;;;;;;6.25;3.60;;;;;;;;;;4967153;28;20050;-78
2022/09/21 03:46:10;;;;;;;4.43;3.38;;;;;;;;;;4956245;29;20098;-78
2022/09/21 03:48:39;;;;;;;6.80;3.50;;;;;;;;;;4954301;28;20037;-78
2022/09/21 03:51:08;;;;;;;4.30;3.28;;;;;;;;;;4970656;28;20058;-78
2022/09/21 03:53:34;;;;;;;3.90;3.20;;;;;;;;;;4939398;29;20564;-78
2022/09/21 03:56:07;;;;;;;6.93;3.78;;;;;;;;;;4970037;29;20042;-78
2022/09/21 03:58:36;;;;;;;4.97;3.40;;;;;;;;;;4947679;29;20031;-78
2022/09/21 04:01:02;;;;;;;4.60;3.63;;;;;;;;;;4958612;28;20152;-77
2022/09/21 04:03:39;;;;;;;4.70;3.35;;;;;;;;;;4954703;29;20027;-77
2022/09/21 04:06:24;;;;;;;6.75;3.20;;;;;;;;;;4970367;28;20060;-76
2022/09/21 04:08:53;;;;;;;5.80;3.50;;;;;;;;;;4951122;29;20442;-77
2022/09/21 04:11:21;;;;;;;4.32;3.47;;;;;;;;;;4951066;29;20099;-78
2022/09/21 04:13:55;;;;;;;4.60;3.40;;;;;;;;;;4950468;29;20043;-77
2022/09/21 04:16:51;;;;;;;4.38;3.30;;;;;;;;;;4951513;29;20040;-77
2022/09/21 04:19:21;;;;;;;4.97;3.42;;;;;;;;;;4923678;29;20041;-77
2022/09/21 04:22:07;;;;;;;6.65;3.40;;;;;;;;;;4907442;29;20056;-78
2022/09/21 04:24:34;;;;;;;5.30;3.65;;;;;;;;;;4889767;29;20073;-77
2022/09/21 04:27:03;;;;;;;4.22;3.05;;;;;;;;;;4904423;29;20025;-77
2022/09/21 04:29:30;;;;;;;4.95;3.08;;;;;;;;;;4897884;29;20048;-78
2022/09/21 04:32:01;;;;;;;7.32;3.63;;;;;;;;;;4912533;29;20037;-78
2022/09/21 04:35:02;;;;;;;4.32;3.20;;;;;;;;;;4869445;29;20052;-78
2022/09/21 04:37:43;;;;;;;6.18;4.07;;;;;;;;;;4900521;29;20032;-78
2022/09/21 04:40:12;;;;;;;4.57;3.28;;;;;;;;;;4911169;29;20095;-77
2022/09/21 04:42:58;;;;;;;4.70;3.67;;;;;;;;;;4925297;29;20036;-76
2022/09/21 04:45:28;;;;;;;4.55;3.55;;;;;;;;;;4921078;29;20052;-78
2022/09/21 04:47:54;;;;;;;8.88;3.63;;;;;;;;;;4918760;29;20032;-78
2022/09/21 04:58:08;;;;;;;7.68;3.97;;;;;;;;;;4975310;23;20043;-76
2022/09/21 05:00:46;;;;;;;5.90;3.78;;;;;;;;;;4939696;29;20036;-77
2022/09/21 05:03:42;;;;;;;8.00;3.78;;;;;;;;;;4954094;29;20034;-77
2022/09/21 05:06:14;;;;;;;6.10;3.97;;;;;;;;;;4955596;29;20023;-76
2022/09/21 05:11:50;;;;;;;8.73;5.45;;;;;;;;;;4954856;28;20047;-79
2022/09/21 05:14:16;;;;;;;7.35;4.38;;;;;;;;;;4947357;28;20067;-77
2022/09/21 05:16:48;;;;;;;8.75;4.88;;;;;;;;;;4942404;29;20027;-77
2022/09/21 05:19:14;;;;;;;12.55;5.72;;;;;;;;;;4946715;28;20035;-77
2022/09/21 05:21:45;;;;;;;11.10;6.82;;;;;;;;;;4954238;28;20044;-77
2022/09/21 05:24:11;;;;;;;9.20;4.88;;;;;;;;;;4942012;29;20039;-75
2022/09/21 05:26:37;;;;;;;12.73;5.90;;;;;;;;;;4946149;29;20036;-76
2022/09/21 05:29:04;;;;;;;11.82;6.22;;;;;;;;;;4944052;28;20008;-74
2022/09/21 05:31:56;;;;;;;8.75;5.18;;;;;;;;;;4945604;29;20118;-79
2022/09/21 05:34:52;;;;;;;11.57;7.05;;;;;;;;;;4949849;29;20035;-76
2022/09/21 05:37:21;;;;;;;8.02;5.60;;;;;;;;;;4951590;29;20088;-77
2022/09/21 05:39:49;;;;;;;6.18;4.93;;;;;;;;;;4948107;29;20063;-77
2022/09/21 05:42:15;;;;;;;7.60;4.57;;;;;;;;;;4957491;29;20038;-75
2022/09/21 05:44:52;;;;;;;6.65;4.47;;;;;;;;;;4946083;29;20031;-75
2022/09/21 05:47:35;;;;;;;5.70;4.10;;;;;;;;;;4893941;29;20062;-75
2022/09/21 05:50:21;;;;;;;8.02;4.80;;;;;;;;;;4955740;29;20036;-77
2022/09/21 05:53:16;;;;;;;6.38;4.30;;;;;;;;;;4959426;28;20019;-77
2022/09/21 05:56:07;;;;;;;7.35;4.10;;;;;;;;;;4954593;29;20042;-77
2022/09/21 05:58:47;;;;;;;9.00;4.60;;;;;;;;;;4951068;29;20015;-78
2022/09/21 06:01:54;;;;;;;5.75;3.97;;;;;;;;;;4953792;28;20401;-76
2022/09/21 06:09:32;;;;;;;6.05;4.45;;;;;;;;;;4955353;23;20032;-75
2022/09/21 06:11:58;;;;;;;7.97;4.65;;;;;;;;;;4930716;29;20056;-77
2022/09/21 06:14:25;;;;;;;7.47;4.47;;;;;;;;;;4930554;29;20037;-75
2022/09/21 06:16:51;;;;;;;5.85;4.60;;;;;;;;;;4942816;29;20039;-74
2022/09/21 06:19:17;;;;;;;6.35;4.53;;;;;;;;;;4942499;29;20019;-76
2022/09/21 06:21:44;;;;;;;9.25;4.82;;;;;;;;;;4941633;29;20028;-73
2022/09/21 06:24:10;;;;;;;9.35;6.10;;;;;;;;;;4932191;29;20034;-76
2022/09/21 06:26:37;;;;;;;9.75;5.38;;;;;;;;;;4935362;29;20040;-76
2022/09/21 06:29:03;;;;;;;7.32;4.60;;;;;;;;;;4936957;29;20473;-77
2022/09/21 06:31:29;;;;;;;6.75;4.80;;;;;;;;;;4918618;29;20055;-77
2022/09/21 06:33:55;;;;;;;7.28;4.50;;;;;;;;;;4916986;29;20031;-77
2022/09/21 06:36:21;;;;;;;8.60;5.25;;;;;;;;;;4935706;29;20024;-75
2022/09/21 06:38:49;;;;;;;10.07;5.15;;;;;;;;;;4944638;29;20371;-77
2022/09/21 06:41:23;;;;;;;7.70;4.90;;;;;;;;;;4934467;29;20027;-77
2022/09/21 06:43:54;;;;;;;16.15;5.68;;;;;;;;;;4939944;29;20024;-78
2022/09/21 06:46:20;;;;;;;16.65;5.70;;;;;;;;;;4921706;29;20122;-77
2022/09/21 06:48:47;;;;;;;8.88;5.45;;;;;;;;;;4922586;29;20407;-77
2022/09/21 06:51:16;;;;;;;8.88;4.80;;;;;;;;;;4928443;29;20036;-77
2022/09/21 06:53:42;;;;;;;6.72;4.78;;;;;;;;;;4926604;29;20067;-77
2022/09/21 06:56:11;;;;;;;7.55;5.10;;;;;;;;;;4944674;29;20024;-78
2022/09/21 06:58:37;;;;;;;9.32;5.38;;;;;;;;;;4942235;29;20042;-77
2022/09/21 07:01:16;;;;;;;7.20;5.63;;;;;;;;;;4938794;29;20027;-78
2022/09/21 07:03:42;;;;;;;8.23;6.40;;;;;;;;;;4933291;29;20032;-75
2022/09/21 07:06:10;;;;;;;12.05;7.82;;;;;;;;;;4938155;29;20087;-74
2022/09/21 07:08:38;;;;;;;11.60;8.13;;;;;;;;;;4939070;29;20139;-76
2022/09/21 07:11:05;;;;;;;9.90;6.85;;;;;;;;;;4942056;29;20043;-78
2022/09/21 07:13:34;;;;;;;11.13;6.60;;;;;;;;;;4962297;28;20023;-78
2022/09/21 07:16:09;;;;;;;8.30;6.30;;;;;;;;;;4940650;29;20023;-77
2022/09/21 07:18:42;;;;;;;9.10;6.10;;;;;;;;;;4940365;28;20043;-77
2022/09/21 07:21:10;;;;;;;9.45;6.40;;;;;;;;;;4941532;29;20039;-77
2022/09/21 07:23:37;;;;;;;10.13;6.32;;;;;;;;;;4963114;28;20473;-77
2022/09/21 07:26:07;;;;;;;7.35;5.97;;;;;;;;;;4958167;28;20042;-77
2022/09/21 07:28:34;;;;;;;8.85;6.53;;;;;;;;;;4962433;28;20078;-77
2022/09/21 07:31:05;;;;;;;9.45;6.07;;;;;;;;;;4965468;28;20035;-77
2022/09/21 07:33:57;;;;;;;7.90;6.20;;;;;;;;;;4971042;28;20007;-79
2022/09/21 07:36:58;;;;;;;8.50;6.22;;;;;;;;;;4935024;29;20024;-79
2022/09/21 07:39:24;;;;;;;10.57;6.53;;;;;;;;;;4946362;29;20044;-74
2022/09/21 07:41:50;;;;;;;10.45;6.93;;;;;;;;;;4959892;29;20105;-75
2022/09/21 07:44:16;;;;;;;9.27;6.93;;;;;;;;;;4966387;29;20031;-76
2022/09/21 07:46:45;;;;;;;8.98;6.88;;;;;;;;;;4963541;29;20027;-76
2022/09/21 07:49:12;;;;;;;8.07;6.63;;;;;;;;;;4973143;28;20506;-77
2022/09/21 07:51:38;;;;;;;9.20;6.72;;;;;;;;;;4963174;28;20035;-74
2022/09/21 07:54:05;;;;;;;10.05;6.85;;;;;;;;;;4955054;29;20031;-73
2022/09/21 07:56:31;;;;;;;9.90;7.28;;;;;;;;;;4961700;28;20381;-73
2022/09/21 07:59:06;;;;;;;9.88;7.10;;;;;;;;;;4955377;28;20500;-74
2022/09/21 08:01:36;;;;;;;8.57;7.05;;;;;;;;;;4951838;29;20035;-78
2022/09/21 08:04:05;;;;;;;8.80;6.57;;;;;;;;;;4977552;28;20011;-78
2022/09/21 08:07:23;;;;;;;12.45;7.13;;;;;;;;;;4971396;28;20031;-77
2022/09/21 08:09:54;;;;;;;9.63;6.60;;;;;;;;;;4945821;29;20055;-78
2022/09/21 08:12:30;;;;;;;13.40;7.60;;;;;;;;;;4940472;28;20053;-80
2022/09/21 08:14:57;;;;;;;11.90;6.88;;;;;;;;;;4929685;28;20016;-76
2022/09/21 08:17:23;;;;;;;10.45;7.20;;;;;;;;;;4907075;29;20114;-77
2022/09/21 08:19:49;;;;;;;11.10;7.93;;;;;;;;;;4927187;29;20475;-78
2022/09/21 08:22:15;;;;;;;12.07;8.85;;;;;;;;;;4929102;29;20044;-78
2022/09/21 08:25:12;;;;;;;14.73;8.98;;;;;;;;;;4917637;29;20047;-79
2022/09/21 08:27:59;;;;;;;14.27;10.27;;;;;;;;;;4933535;29;20059;-76
2022/09/21 08:30:37;;;;;;;247.98;36.13;;;;;;;;;;4934203;29;20422;-77
2022/09/21 08:33:05;;;;;;;10.63;8.13;;;;;;;;;;4931625;29;20130;-73
2022/09/21 08:38:07;;;;;;;12.65;8.02;;;;;;;;;;5470356;23;20048;-75
2022/09/21 08:40:34;;;;;;;10.50;8.13;;;;;;;;;;4941303;29;20039;-78
2022/09/21 08:43:07;;;;;;;11.68;7.65;;;;;;;;;;4914139;29;20032;-77
2022/09/21 08:45:37;;;;;;;10.88;8.15;;;;;;;;;;4926480;29;20024;-77
2022/09/21 08:48:05;;;;;;;12.90;8.27;;;;;;;;;;4916546;29;20024;-75
2022/09/21 08:50:34;;;;;;;10.70;8.35;;;;;;;;;;4911897;29;20040;-75
2022/09/21 08:53:06;;;;;;;10.63;8.50;;;;;;;;;;4919108;29;20031;-74
2022/09/21 08:55:32;;;;;;;12.18;8.65;;;;;;;;;;4940026;29;20038;-71
2022/09/21 08:58:00;;;;;;;11.82;8.48;;;;;;;;;;4935984;29;20111;-73
2022/09/21 09:00:27;;;;;;;17.80;9.13;;;;;;;;;;4943574;29;20024;-72
2022/09/21 09:02:53;;;;;;;16.48;10.00;;;;;;;;;;4937255;29;20032;-73
2022/09/21 09:05:23;;;;;;;14.95;10.05;;;;;;;;;;4932403;29;20086;-76
2022/09/21 09:07:50;;;;;;;14.90;10.48;;;;;;;;;;4908661;29;20027;-76
2022/09/21 09:10:32;;;;;;;16.05;11.02;;;;;;;;;;4922854;29;20025;-74
2022/09/21 09:13:07;;;;;;;14.05;10.15;;;;;;;;;;4930731;29;20035;-74
2022/09/21 09:15:40;;;;;;;16.05;10.13;;;;;;;;;;4911569;29;20481;-73
2022/09/21 09:18:24;;;;;;;15.95;10.68;;;;;;;;;;4925269;29;20031;-75
2022/09/21 09:21:05;;;;;;;16.65;11.00;;;;;;;;;;4922352;29;20104;-74
2022/09/21 09:23:34;;;;;;;15.35;12.20;;;;;;;;;;4927089;29;20031;-73
2022/09/21 09:26:10;;;;;;;17.50;11.85;;;;;;;;;;4927282;29;20546;-77
2022/09/21 09:28:41;;;;;;;17.02;11.73;;;;;;;;;;4962340;29;20028;-78
2022/09/21 09:31:19;;;;;;;16.67;11.50;;;;;;;;;;4930680;29;20032;-75
2022/09/21 09:33:45;;;;;;;14.02;11.18;;;;;;;;;;4924244;29;20065;-77
2022/09/21 09:36:13;;;;;;;27.27;21.05;;;;;;;;;;4930418;29;20024;-75
2022/09/21 09:38:41;;;;;;;48.53;34.25;;;;;;;;;;4923862;29;20056;-76
2022/09/21 09:41:07;;;;;;;17.25;12.82;;;;;;;;;;4921822;29;20039;-75
2022/09/21 09:43:48;;;;;;;18.27;12.82;;;;;;;;;;4921017;29;20477;-77
2022/09/21 09:46:14;;;;;;;16.65;11.48;;;;;;;;;;4942308;29;20039;-77
2022/09/21 09:48:58;;;;;;;16.88;12.13;;;;;;;;;;4930054;29;20036;-74
2022/09/21 09:51:25;;;;;;;16.38;13.18;;;;;;;;;;4929220;29;20020;-74
2022/09/21 09:53:53;;;;;;;19.67;12.85;;;;;;;;;;4938457;29;20178;-73
2022/09/21 09:56:19;;;;;;;17.77;14.13;;;;;;;;;;4942756;29;20474;-72
2022/09/21 09:58:56;;;;;;;19.40;13.57;;;;;;;;;;4922820;29;20047;-74
2022/09/21 10:01:36;;;;;;;21.52;14.65;;;;;;;;;;4943049;29;20034;-72
2022/09/21 10:04:07;;;;;;;20.35;13.95;;;;;;;;;;4935586;29;20104;-73
2022/09/21 10:06:33;;;;;;;23.25;13.40;;;;;;;;;;4930375;29;20028;-75
2022/09/21 10:08:59;;;;;;;15.90;13.05;;;;;;;;;;4939253;29;20024;-73
2022/09/21 10:11:34;;;;;;;21.65;12.27;;;;;;;;;;4933944;29;20386;-73
2022/09/21 10:14:07;;;;;;;20.65;12.07;;;;;;;;;;4935352;29;20024;-73
2022/09/21 10:16:39;;;;;;;15.07;11.52;;;;;;;;;;4933142;29;20031;-74
2022/09/21 10:19:06;;;;;;;19.27;11.48;;;;;;;;;;4928656;29;20360;-79
2022/09/21 10:21:42;;;;;;;15.65;11.63;;;;;;;;;;4926567;29;20032;-79
2022/09/21 10:24:21;;;;;;;14.00;11.15;;;;;;;;;;4934976;29;20027;-73
2022/09/21 10:26:48;;;;;;;13.77;11.02;;;;;;;;;;4937395;29;20024;-73
2022/09/21 10:29:19;;;;;;;13.77;10.65;;;;;;;;;;4932245;29;20043;-73
2022/09/21 10:31:56;;;;;;;12.98;10.00;;;;;;;;;;4928549;29;20028;-74
2022/09/21 10:34:22;;;;;;;19.23;10.18;;;;;;;;;;4934094;29;20092;-72
2022/09/21 10:36:53;;;;;;;13.68;10.15;;;;;;;;;;4939345;29;20418;-74
2022/09/21 10:39:19;;;;;;;13.55;9.88;;;;;;;;;;4935515;29;20418;-74
2022/09/21 10:41:51;;;;;;;16.52;9.25;;;;;;;;;;4946328;29;20039;-75
2022/09/21 10:44:21;;;;;;;14.25;10.52;;;;;;;;;;4938301;29;20036;-75
2022/09/21 10:46:49;;;;;;;15.18;9.82;;;;;;;;;;4945478;29;20019;-77
2022/09/21 10:49:20;;;;;;;13.55;9.45;;;;;;;;;;4931703;29;20024;-74
2022/09/21 10:51:47;;;;;;;12.55;9.13;;;;;;;;;;4932969;29;20127;-74
2022/09/21 10:54:17;;;;;;;11.77;8.60;;;;;;;;;;4943360;29;20068;-78
2022/09/21 10:56:57;;;;;;;15.48;9.15;;;;;;;;;;4938915;29;20008;-73
2022/09/21 10:59:36;;;;;;;13.05;8.90;;;;;;;;;;4934573;29;20050;-77
2022/09/21 11:02:26;;;;;;;11.73;9.70;;;;;;;;;;4939626;29;20023;-79
2022/09/21 11:04:56;;;;;;;15.68;10.50;;;;;;;;;;4921537;29;20040;-77
2022/09/21 11:07:34;;;;;;;12.20;9.60;;;;;;;;;;4936923;29;20039;-75
2022/09/21 11:10:07;;;;;;;9.93;8.38;;;;;;;;;;4936924;29;20038;-77
2022/09/21 11:12:42;;;;;;;12.23;10.10;;;;;;;;;;4933737;29;20371;-75
2022/09/21 11:15:11;;;;;;;12.52;9.27;;;;;;;;;;4932754;29;20039;-76
2022/09/21 11:17:37;;;;;;;12.52;8.50;;;;;;;;;;4928330;29;20028;-75
2022/09/21 11:20:06;;;;;;;11.18;8.27;;;;;;;;;;4934933;29;20088;-73
2022/09/21 11:22:41;;;;;;;8.35;7.32;;;;;;;;;;4936497;29;20044;-71
2022/09/21 11:25:27;;;;;;;9.63;7.15;;;;;;;;;;4931265;29;20044;-75
2022/09/21 11:28:12;;;;;;;8.20;7.22;;;;;;;;;;4947358;29;20127;-76
2022/09/21 11:31:06;;;;;;;8.65;7.22;;;;;;;;;;4940718;29;20027;-79
2022/09/21 11:33:40;;;;;;;9.60;7.00;;;;;;;;;;4938315;29;20035;-77
2022/09/21 11:36:24;;;;;;;10.52;8.05;;;;;;;;;;4940929;29;20068;-75
2022/09/21 11:38:50;;;;;;;11.65;8.00;;;;;;;;;;4935728;29;20059;-75
2022/09/21 11:41:23;;;;;;;9.68;8.45;;;;;;;;;;4929183;29;20055;-76
2022/09/21 11:44:08;;;;;;;15.83;10.47;;;;;;;;;;4930659;29;20101;-74
2022/09/21 11:46:48;;;;;;;12.18;9.48;;;;;;;;;;4927789;29;20286;-76
2022/09/21 11:49:20;;;;;;;12.70;10.50;;;;;;;;;;4922775;29;20039;-75
2022/09/21 11:52:03;;;;;;;11.40;9.77;;;;;;;;;;4934475;29;20071;-76
2022/09/21 11:54:29;;;;;;;11.47;9.30;;;;;;;;;;4907424;29;20047;-74
2022/09/21 11:57:03;;;;;;;13.55;10.05;;;;;;;;;;4923032;29;20020;-76
2022/09/21 11:59:49;;;;;;;13.85;9.85;;;;;;;;;;4929881;29;20055;-75
2022/09/21 12:02:34;;;;;;;14.30;9.20;;;;;;;;;;4920905;29;20389;-74
2022/09/21 12:05:07;;;;;;;11.15;8.15;;;;;;;;;;4927254;29;20059;-74
2022/09/21 12:07:52;;;;;;;16.73;9.73;;;;;;;;;;4927726;29;20039;-79
2022/09/21 12:10:24;;;;;;;10.60;8.50;;;;;;;;;;4927854;29;20034;-76
2022/09/21 12:12:50;;;;;;;10.52;8.60;;;;;;;;;;4935398;29;20039;-76
2022/09/21 12:15:21;;;;;;;10.13;8.70;;;;;;;;;;4934351;29;20028;-75
2022/09/21 12:18:01;;;;;;;7.25;6.20;;;;;;;;;;4934796;29;20032;-76
2022/09/21 12:20:33;;;;;;;7.38;4.50;;;;;;;;;;4937119;29;20020;-74
2022/09/21 12:23:05;;;;;;;4.65;3.55;;;;;;;;;;4915186;29;20458;-74
2022/09/21 12:25:38;;;;;;;7.85;3.63;;;;;;;;;;4932451;29;20948;-76
2022/09/21 12:28:04;;;;;;;5.90;4.28;;;;;;;;;;4930375;29;20527;-74
2022/09/21 12:30:31;;;;;;;6.30;3.97;;;;;;;;;;4931837;29;20521;-75
2022/09/21 12:33:14;;;;;;;6.72;4.00;;;;;;;;;;4933042;29;20035;-76
2022/09/21 12:35:40;;;;;;;7.05;3.92;;;;;;;;;;4932360;29;20501;-76
2022/09/21 12:38:12;;;;;;;6.97;4.60;;;;;;;;;;4916000;29;20083;-75
2022/09/21 12:40:42;;;;;;;10.50;5.30;;;;;;;;;;4934851;29;20425;-73
2022/09/21 12:43:15;;;;;;;5.80;4.40;;;;;;;;;;4937010;29;20114;-76
2022/09/21 12:45:45;;;;;;;7.45;4.40;;;;;;;;;;4927717;29;20556;-74
2022/09/21 12:48:12;;;;;;;4.90;3.60;;;;;;;;;;4918017;29;20028;-74
2022/09/21 12:50:47;;;;;;;5.82;3.67;;;;;;;;;;4921896;29;20114;-77
2022/09/21 12:53:20;;;;;;;7.07;3.70;;;;;;;;;;4930295;29;20400;-75
2022/09/21 12:55:55;;;;;;;7.03;3.92;;;;;;;;;;4922627;29;20036;-74
2022/09/21 12:58:38;;;;;;;6.20;3.50;;;;;;;;;;4927985;29;20043;-74
2022/09/21 13:01:25;;;;;;;5.88;4.10;;;;;;;;;;4927776;29;20024;-76
2022/09/21 13:04:00;;;;;;;5.95;4.68;;;;;;;;;;4928672;29;20060;-73
2022/09/21 13:06:51;;;;;;;6.53;4.60;;;;;;;;;;4931195;29;20501;-73
2022/09/21 13:09:18;;;;;;;8.45;5.60;;;;;;;;;;4926225;29;20102;-74
2022/09/21 13:12:10;;;;;;;8.32;5.03;;;;;;;;;;4925082;29;20032;-74
2022/09/21 13:14:41;;;;;;;4.75;4.00;;;;;;;;;;4918978;29;20091;-75
2022/09/21 13:17:17;;;;;;;3.88;3.40;;;;;;;;;;4927381;29;20032;-76
2022/09/21 13:19:43;;;;;;;4.93;3.63;;;;;;;;;;4927275;29;20035;-74
2022/09/21 13:22:19;;;;;;;6.78;3.60;;;;;;;;;;4930370;29;20125;-75
2022/09/21 13:25:00;;;;;;;4.60;3.20;;;;;;;;;;4929671;29;20039;-78
2022/09/21 13:27:46;;;;;;;24.55;8.45;;;;;;;;;;4917398;29;20027;-76
2022/09/21 13:30:19;;;;;;;29.05;10.10;;;;;;;;;;4923220;29;20036;-72
2022/09/21 13:32:54;;;;;;;17.35;10.50;;;;;;;;;;4922456;29;20095;-75
2022/09/21 13:35:39;;;;;;;10.05;5.80;;;;;;;;;;4929391;29;20035;-76
2022/09/21 13:38:23;;;;;;;7.65;5.13;;;;;;;;;;4928827;29;20056;-76
2022/09/21 13:40:56;;;;;;;9.68;5.47;;;;;;;;;;4924408;29;20013;-77
2022/09/21 13:43:23;;;;;;;7.07;4.40;;;;;;;;;;4925290;29;20135;-74
2022/09/21 13:45:52;;;;;;;7.85;4.03;;;;;;;;;;4928681;29;20044;-77
2022/09/21 13:48:26;;;;;;;6.05;3.65;;;;;;;;;;4934721;29;20115;-76
2022/09/21 13:50:56;;;;;;;3.33;3.03;;;;;;;;;;4924228;29;20044;-73
2022/09/21 13:53:38;;;;;;;4.32;3.38;;;;;;;;;;4924273;29;20020;-75
2022/09/21 13:56:09;;;;;;;3.90;2.85;;;;;;;;;;4931373;29;20046;-74
2022/09/21 13:58:41;;;;;;;4.65;4.10;;;;;;;;;;4951617;29;20035;-74
2022/09/21 14:01:14;;;;;;;5.05;4.05;;;;;;;;;;4949268;29;20052;-75
2022/09/21 14:03:46;;;;;;;6.00;3.58;;;;;;;;;;4942461;29;20028;-75
2022/09/21 14:06:14;;;;;;;4.40;3.10;;;;;;;;;;4938849;29;20052;-73
2022/09/21 14:08:53;;;;;;;6.10;2.42;;;;;;;;;;4921394;29;20036;-77
2022/09/21 14:11:28;;;;;;;4.72;3.40;;;;;;;;;;4933162;29;20470;-74
2022/09/21 14:14:14;;;;;;;5.57;3.88;;;;;;;;;;4927105;29;20056;-77
2022/09/21 14:16:46;;;;;;;7.70;4.22;;;;;;;;;;4911232;29;20035;-77
2022/09/21 14:19:21;;;;;;;7.35;3.97;;;;;;;;;;4932645;29;20115;-75
2022/09/21 14:22:06;;;;;;;7.85;4.03;;;;;;;;;;4937171;29;20087;-75
2022/09/21 14:25:10;;;;;;;6.53;4.20;;;;;;;;;;4933519;29;20078;-74
2022/09/21 14:27:36;;;;;;;;;;;;;;;;;;4926432;29;20055;-74
2022/09/21 14:30:07;;;;;;;5.78;4.18;;;;;;;;;;4928685;29;19950;-77
2022/09/21 14:32:38;;;;;;;4.93;3.92;;;;;;;;;;4929732;29;20492;-73
2022/09/21 14:35:23;;;;;;;5.28;3.88;;;;;;;;;;4924418;29;20028;-72
2022/09/21 14:37:55;;;;;;;6.20;4.40;;;;;;;;;;4934941;29;20052;-73
2022/09/21 14:40:50;;;;;;;7.60;5.25;;;;;;;;;;4932676;29;20094;-74
2022/09/21 14:43:43;;;;;;;7.57;5.70;;;;;;;;;;4840935;29;20061;-72
2022/09/21 14:46:19;;;;;;;9.93;6.93;;;;;;;;;;4841726;29;20085;-72
2022/09/21 14:49:03;;;;;;;8.95;7.80;;;;;;;;;;4842016;29;20071;-72
2022/09/21 14:51:41;;;;;;;9.15;7.38;;;;;;;;;;4840334;29;20056;-72
2022/09/21 14:54:16;;;;;;;14.18;7.88;;;;;;;;;;4838540;29;20034;-72
2022/09/21 14:56:50;;;;;;;11.23;7.50;;;;;;;;;;4842220;29;20029;-74
2022/09/21 14:59:42;;;;;;;9.50;7.13;;;;;;;;;;4825629;29;20033;-72
2022/09/21 15:02:19;;;;;;;8.82;7.10;;;;;;;;;;4842252;29;20026;-79
2022/09/21 15:04:54;;;;;;;8.77;7.38;;;;;;;;;;4840910;29;20053;-73
2022/09/21 15:13:18;;;;;;;8.38;5.40;;;;;;;;;;4843592;29;20048;-75
2022/09/21 15:15:44;;;;;;;6.40;4.80;;;;;;;;;;4826574;29;20135;-77
2022/09/21 15:18:16;;;;;;;6.47;4.45;;;;;;;;;;4845701;29;20105;-77
2022/09/21 15:20:43;;;;;;;5.93;4.45;;;;;;;;;;4930791;29;20056;-74
2022/09/21 15:23:17;;;;;;;6.00;4.38;;;;;;;;;;4925885;29;20025;-75
2022/09/21 15:25:54;;;;;;;5.80;4.30;;;;;;;;;;4922832;29;20039;-75
2022/09/21 15:28:21;;;;;;;5.43;4.28;;;;;;;;;;4931162;29;20386;-75
2022/09/21 15:30:51;;;;;;;6.68;4.03;;;;;;;;;;4926644;29;20031;-75
2022/09/21 15:33:17;;;;;;;6.13;3.85;;;;;;;;;;4928068;29;20034;-74
2022/09/21 15:35:46;;;;;;;4.90;3.58;;;;;;;;;;4908904;29;20032;-75
2022/09/21 15:38:33;;;;;;;6.10;3.83;;;;;;;;;;4923971;29;20055;-77
2022/09/21 15:40:59;;;;;;;5.53;3.30;;;;;;;;;;4931503;29;20031;-76
2022/09/21 15:43:25;;;;;;;4.68;3.53;;;;;;;;;;4946132;29;20085;-76
2022/09/21 15:46:06;;;;;;;5.45;4.40;;;;;;;;;;4943138;29;20438;-77
2022/09/21 15:48:43;;;;;;;7.80;4.10;;;;;;;;;;4934915;29;20492;-75
2022/09/21 15:51:22;;;;;;;8.63;4.63;;;;;;;;;;4932886;29;20106;-76